createdAt,value
2022-09-30T00:01:53.665Z,100462.41
2022-09-30T00:04:23.491Z,100458.97
2022-09-30T00:06:51.898Z,100456.31
2022-09-30T00:09:18.679Z,100462.25
2022-09-30T00:11:46.639Z,100473.53
2022-09-30T00:14:22.130Z,100465.13
2022-09-30T00:16:49.340Z,100467.78
2022-09-30T00:19:16.075Z,100471.31
2022-09-30T00:21:42.587Z,100475.78
2022-09-30T00:24:09.163Z,100470.44
2022-09-30T00:26:35.928Z,100472.31
2022-09-30T00:29:03.307Z,100475.16
2022-09-30T00:31:32.426Z,100473.72
2022-09-30T00:34:08.715Z,100472.69
2022-09-30T00:36:47.209Z,100473.09
2022-09-30T00:39:16.336Z,100478.41
2022-09-30T00:41:43.408Z,100472.06
2022-09-30T00:44:47.870Z,100469.34
2022-09-30T00:47:19.848Z,100479.75
2022-09-30T00:49:46.375Z,100474.28
2022-09-30T00:52:13.046Z,100469.16
2022-09-30T00:54:39.518Z,100471.44
2022-09-30T00:57:08.185Z,100466.53
2022-09-30T00:59:38.197Z,100469.38
2022-09-30T01:02:05.737Z,100471.88
2022-09-30T01:04:32.684Z,100467.75
2022-09-30T01:07:01.979Z,100465.91
2022-09-30T01:09:29.095Z,100462.44
2022-09-30T01:11:55.865Z,100465.09
2022-09-30T01:14:25.025Z,100458.94
2022-09-30T01:17:29.063Z,100461.59
2022-09-30T01:20:26.665Z,100462.81
2022-09-30T01:23:27.096Z,100459.16
2022-09-30T01:26:14.237Z,100467.31
2022-09-30T01:29:03.647Z,100464.47
2022-09-30T01:31:53.003Z,100467.13
2022-09-30T01:34:29.955Z,100472.88
2022-09-30T01:37:06.022Z,100480.84
2022-09-30T01:39:55.450Z,100489.66
2022-09-30T01:42:32.371Z,100484.13
2022-09-30T01:45:14.237Z,100483.31
2022-09-30T01:48:06.839Z,100478.78
2022-09-30T01:51:01.631Z,100489.41
2022-09-30T01:53:39.566Z,100490.25
2022-09-30T01:56:22.040Z,100484.91
2022-09-30T01:58:58.288Z,100484.91
2022-09-30T02:01:31.639Z,100491.63
2022-09-30T02:04:02.056Z,100475.03
2022-09-30T02:06:34.077Z,100477.28
2022-09-30T02:09:05.169Z,100479.34
2022-09-30T02:11:38.518Z,100477.91
2022-09-30T02:14:17.963Z,100475.88
2022-09-30T02:16:50.881Z,100480.41
2022-09-30T02:19:37.000Z,100473.03
2022-09-30T02:22:12.352Z,100477.53
2022-09-30T02:24:39.774Z,100478.13
2022-09-30T02:27:11.291Z,100479.13
2022-09-30T02:29:42.043Z,100475.47
2022-09-30T02:32:18.504Z,100473.41
2022-09-30T02:34:50.321Z,100484.22
2022-09-30T02:37:24.310Z,100479.72
2022-09-30T02:40:06.035Z,100486.06
2022-09-30T02:42:32.843Z,100490.34
2022-09-30T02:45:08.775Z,100497.47
2022-09-30T02:48:11.278Z,100489.06
2022-09-30T02:50:50.255Z,100499.53
2022-09-30T02:53:43.584Z,100506.28
2022-09-30T02:56:43.391Z,100505.28
2022-09-30T02:59:09.841Z,100507.50
2022-09-30T03:01:41.760Z,100501.72
2022-09-30T03:04:10.296Z,100507.25
2022-09-30T03:06:37.474Z,100513.81
2022-09-30T03:09:05.023Z,100514.63
2022-09-30T03:11:32.673Z,100511.75
2022-09-30T03:13:59.060Z,100517.69
2022-09-30T03:16:44.103Z,100515.84
2022-09-30T03:19:29.092Z,100517.41
2022-09-30T03:22:23.554Z,100526.03
2022-09-30T03:25:18.141Z,100530.53
2022-09-30T03:28:02.945Z,100533.31
2022-09-30T03:30:30.690Z,100539.00
2022-09-30T03:33:09.895Z,100545.63
2022-09-30T03:35:58.271Z,100548.34
2022-09-30T03:38:29.450Z,100548.78
2022-09-30T03:41:04.516Z,100549.97
2022-09-30T03:43:44.466Z,100549.59
2022-09-30T03:46:34.679Z,100561.00
2022-09-30T03:49:05.028Z,100555.38
2022-09-30T03:51:32.106Z,100547.34
2022-09-30T03:53:58.975Z,100555.50
2022-09-30T03:56:29.974Z,100560.22
2022-09-30T03:58:56.650Z,100558.53
2022-09-30T04:01:23.717Z,100559.75
2022-09-30T04:03:53.891Z,100565.94
2022-09-30T04:06:22.292Z,100562.56
2022-09-30T04:08:49.708Z,100563.34
2022-09-30T04:11:16.507Z,100564.16
2022-09-30T04:13:43.154Z,100567.28
2022-09-30T04:16:10.013Z,100569.47
2022-09-30T04:18:38.260Z,100572.06
2022-09-30T04:21:06.517Z,100573.50
2022-09-30T04:23:35.439Z,100572.31
2022-09-30T04:26:02.390Z,100567.78
2022-09-30T04:28:29.312Z,100565.88
2022-09-30T04:30:59.573Z,100570.94
2022-09-30T04:33:26.043Z,100566.25
2022-09-30T04:35:56.422Z,100572.28
2022-09-30T04:38:24.484Z,100564.06
2022-09-30T04:40:51.646Z,100572.84
2022-09-30T04:43:19.098Z,100582.38
2022-09-30T04:45:46.557Z,100582.13
2022-09-30T04:48:13.749Z,100599.81
2022-09-30T04:50:40.982Z,100590.97
2022-09-30T04:53:08.032Z,100595.63
2022-09-30T04:55:34.496Z,100608.28
2022-09-30T04:58:00.977Z,100614.34
2022-09-30T05:00:27.468Z,100614.19
2022-09-30T05:02:53.939Z,100617.75
2022-09-30T05:05:20.409Z,100613.09
2022-09-30T05:07:46.855Z,100608.78
2022-09-30T05:10:13.328Z,100609.78
2022-09-30T05:12:43.067Z,100607.41
2022-09-30T05:15:09.920Z,100611.69
2022-09-30T05:17:36.499Z,100610.31
2022-09-30T05:20:04.808Z,100612.53
2022-09-30T05:22:31.413Z,100613.72
2022-09-30T05:24:58.120Z,100606.78
2022-09-30T05:27:24.700Z,100602.97
2022-09-30T05:29:51.218Z,100603.88
2022-09-30T05:32:18.198Z,100600.53
2022-09-30T05:34:44.651Z,100602.19
2022-09-30T05:37:11.104Z,100601.44
2022-09-30T05:39:37.577Z,100601.22
2022-09-30T05:42:04.029Z,100616.06
2022-09-30T05:44:30.502Z,100606.50
2022-09-30T05:46:57.845Z,100605.09
2022-09-30T05:49:25.579Z,100608.72
2022-09-30T05:51:52.688Z,100613.22
2022-09-30T05:54:19.143Z,100611.50
2022-09-30T05:56:45.602Z,100609.44
2022-09-30T05:59:12.070Z,100608.28
2022-09-30T06:01:38.762Z,100608.63
2022-09-30T06:04:05.239Z,100600.94
2022-09-30T06:06:31.700Z,100607.59
2022-09-30T06:08:58.251Z,100607.44
2022-09-30T06:11:25.028Z,100612.31
2022-09-30T06:13:51.508Z,100620.47
2022-09-30T06:16:18.658Z,100619.28
2022-09-30T06:18:45.280Z,100620.41
2022-09-30T06:21:14.384Z,100621.19
2022-09-30T06:23:41.499Z,100626.00
2022-09-30T06:26:09.579Z,100631.03
2022-09-30T06:28:36.120Z,100630.69
2022-09-30T06:31:04.224Z,100633.38
2022-09-30T06:33:31.917Z,100632.47
2022-09-30T06:35:58.715Z,100636.19
2022-09-30T06:38:27.746Z,100633.97
2022-09-30T06:40:54.286Z,100636.34
2022-09-30T06:43:20.873Z,100650.50
2022-09-30T06:45:48.474Z,100646.81
2022-09-30T06:48:19.945Z,100651.94
2022-09-30T06:51:01.528Z,100654.06
2022-09-30T06:53:29.252Z,100662.28
2022-09-30T06:55:58.688Z,100660.97
2022-09-30T06:58:25.503Z,100659.94
2022-09-30T07:01:06.310Z,100668.13
2022-09-30T07:03:34.616Z,100667.03
2022-09-30T07:06:02.806Z,100664.81
2022-09-30T07:08:31.689Z,100667.84
2022-09-30T07:10:59.538Z,100676.16
2022-09-30T07:13:26.459Z,100673.75
2022-09-30T07:15:56.382Z,100670.34
2022-09-30T07:18:24.242Z,100664.47
2022-09-30T07:20:51.752Z,100664.34
2022-09-30T07:23:19.272Z,100670.75
2022-09-30T07:25:51.997Z,100677.34
2022-09-30T07:28:18.497Z,100670.84
2022-09-30T07:30:44.949Z,100669.03
2022-09-30T07:33:16.343Z,100667.81
2022-09-30T07:35:51.051Z,100668.72
2022-09-30T07:38:18.729Z,100674.28
2022-09-30T07:41:01.482Z,100671.66
2022-09-30T07:43:35.065Z,100671.66
2022-09-30T07:46:05.443Z,100677.03
2022-09-30T07:48:44.655Z,100674.56
2022-09-30T07:51:21.963Z,100673.75
2022-09-30T07:53:54.317Z,100678.22
2022-09-30T07:56:21.793Z,100671.31
2022-09-30T07:58:49.183Z,100671.56
2022-09-30T08:01:16.607Z,100679.34
2022-09-30T08:03:44.543Z,100679.97
2022-09-30T08:06:17.478Z,100674.19
2022-09-30T08:08:44.930Z,100679.16
2022-09-30T08:11:12.216Z,100679.97
2022-09-30T08:13:38.911Z,100668.47
2022-09-30T08:16:05.590Z,100676.69
2022-09-30T08:18:32.346Z,100675.44
2022-09-30T08:21:06.396Z,100684.69
2022-09-30T08:23:33.743Z,100677.06
2022-09-30T08:26:05.804Z,100689.34
2022-09-30T08:28:32.385Z,100694.31
2022-09-30T08:31:10.872Z,100699.25
2022-09-30T08:33:37.434Z,100698.38
2022-09-30T08:36:05.491Z,100691.63
2022-09-30T08:38:32.199Z,100700.88
2022-09-30T08:41:09.532Z,100698.00
2022-09-30T08:44:16.450Z,100698.44
2022-09-30T08:47:19.076Z,100701.53
2022-09-30T08:49:51.410Z,100701.13
2022-09-30T08:52:30.304Z,100699.66
2022-09-30T08:55:06.294Z,100697.59
2022-09-30T08:57:41.847Z,100705.41
2022-09-30T09:00:16.273Z,100706.84
2022-09-30T09:02:46.630Z,100708.25
2022-09-30T09:05:40.009Z,100714.22
2022-09-30T09:08:32.078Z,100716.03
2022-09-30T09:11:12.350Z,100717.38
2022-09-30T09:13:52.042Z,100717.66
2022-09-30T09:16:24.375Z,100713.53
2022-09-30T09:18:56.822Z,100708.06
2022-09-30T09:21:31.775Z,100699.84
2022-09-30T09:24:02.099Z,100700.06
2022-09-30T09:26:35.159Z,100698.66
2022-09-30T09:29:20.222Z,100700.16
2022-09-30T09:31:48.255Z,100699.00
2022-09-30T09:34:15.403Z,100702.06
2022-09-30T09:36:56.472Z,100696.59
2022-09-30T09:39:48.936Z,100709.34
2022-09-30T09:42:30.314Z,100699.13
2022-09-30T09:45:04.995Z,100710.06
2022-09-30T09:47:32.240Z,100705.31
2022-09-30T09:50:00.962Z,100704.00
2022-09-30T09:53:04.937Z,100707.56
2022-09-30T09:55:31.475Z,100706.06
2022-09-30T09:58:10.759Z,100699.88
2022-09-30T10:00:46.294Z,100695.66
2022-09-30T10:03:20.071Z,100688.66
2022-09-30T10:06:07.479Z,100688.44
2022-09-30T10:08:36.284Z,100693.38
2022-09-30T10:11:10.333Z,100696.16
2022-09-30T10:13:46.554Z,100699.69
2022-09-30T10:16:26.096Z,100692.16
2022-09-30T10:18:52.552Z,100702.53
2022-09-30T10:21:19.699Z,100708.22
2022-09-30T10:23:46.145Z,100703.88
2022-09-30T10:26:18.470Z,100688.78
2022-09-30T10:28:56.415Z,100686.13
2022-09-30T10:31:37.118Z,100682.84
2022-09-30T10:34:32.473Z,100698.53
2022-09-30T10:37:01.562Z,100682.59
2022-09-30T10:39:34.502Z,100685.09
2022-09-30T10:42:07.335Z,100679.44
2022-09-30T10:44:41.778Z,100700.06
2022-09-30T10:47:08.684Z,100685.84
2022-09-30T10:49:40.167Z,100696.28
2022-09-30T10:52:16.094Z,100714.06
2022-09-30T10:54:59.412Z,100728.69
2022-09-30T10:57:32.528Z,100721.16
2022-09-30T11:00:07.753Z,100725.88
2022-09-30T11:02:41.980Z,100730.56
2022-09-30T11:05:22.445Z,100718.47
2022-09-30T11:08:02.670Z,100713.78
2022-09-30T11:10:51.234Z,100712.16
2022-09-30T11:13:24.222Z,100708.09
2022-09-30T11:16:08.874Z,100713.34
2022-09-30T11:18:45.351Z,100696.91
2022-09-30T11:21:44.045Z,100699.31
2022-09-30T11:24:34.163Z,100691.84
2022-09-30T11:27:49.210Z,100697.78
2022-09-30T11:30:35.619Z,100688.63
2022-09-30T11:33:39.066Z,100683.13
2022-09-30T11:36:19.655Z,100672.53
2022-09-30T11:38:57.062Z,100701.78
2022-09-30T11:41:33.772Z,100684.53
2022-09-30T11:44:24.624Z,100684.00
2022-09-30T11:47:00.254Z,100668.81
2022-09-30T11:49:49.848Z,100644.31
2022-09-30T11:52:16.243Z,100623.91
2022-09-30T11:54:53.674Z,100644.22
2022-09-30T11:57:32.741Z,100633.84
2022-09-30T12:00:04.943Z,100654.38
2022-09-30T12:02:44.491Z,100640.00
2022-09-30T12:05:17.077Z,100654.81
2022-09-30T12:07:46.698Z,100645.78
2022-09-30T12:10:21.476Z,100637.34
2022-09-30T12:12:52.852Z,100650.03
2022-09-30T12:15:20.548Z,100646.09
2022-09-30T12:17:50.586Z,100656.63
2022-09-30T12:20:39.390Z,100661.63
2022-09-30T12:23:13.879Z,100667.25
2022-09-30T12:25:44.824Z,100669.25
2022-09-30T12:28:43.589Z,100661.44
2022-09-30T12:31:28.815Z,100633.13
2022-09-30T12:34:37.217Z,100654.63
2022-09-30T12:37:15.427Z,100671.06
2022-09-30T12:39:53.305Z,100698.63
2022-09-30T12:42:50.353Z,100680.63
2022-09-30T12:45:47.651Z,100665.78
2022-09-30T12:48:20.574Z,100682.78
2022-09-30T12:50:49.687Z,100683.31
2022-09-30T12:53:19.863Z,100660.56
2022-09-30T12:55:46.490Z,100680.19
2022-09-30T12:58:30.488Z,100668.94
2022-09-30T13:01:08.109Z,100678.53
2022-09-30T13:03:44.808Z,100679.50
2022-09-30T13:06:11.263Z,100694.41
2022-09-30T13:08:57.297Z,100684.00
2022-09-30T13:11:36.326Z,100645.78
2022-09-30T13:14:30.328Z,100624.88
2022-09-30T13:17:02.019Z,100614.19
2022-09-30T13:19:40.283Z,100632.22
2022-09-30T13:22:30.132Z,100649.81
2022-09-30T13:25:05.276Z,100656.91
2022-09-30T13:27:55.320Z,100661.53
2022-09-30T13:30:21.721Z,100655.75
2022-09-30T13:32:57.463Z,100676.06
2022-09-30T13:35:39.712Z,100683.31
2022-09-30T13:38:11.904Z,100700.34
2022-09-30T13:41:01.324Z,100691.34
2022-09-30T13:43:36.502Z,100696.00
2022-09-30T13:46:28.188Z,100700.22
2022-09-30T13:48:59.346Z,100698.72
2022-09-30T13:51:28.642Z,100691.44
2022-09-30T13:53:58.623Z,100670.06
2022-09-30T13:56:32.356Z,100663.91
2022-09-30T13:59:37.336Z,100680.94
2022-09-30T14:02:31.215Z,100662.34
2022-09-30T14:05:16.432Z,100657.59
2022-09-30T14:08:12.263Z,100651.69
2022-09-30T14:10:57.094Z,100667.66
2022-09-30T14:13:42.243Z,100681.19
2022-09-30T14:16:31.711Z,100683.69
2022-09-30T14:19:25.717Z,100673.38
2022-09-30T14:21:54.466Z,100667.25
2022-09-30T14:24:25.303Z,100678.75
2022-09-30T14:27:24.269Z,100686.81
2022-09-30T14:30:04.421Z,100666.97
2022-09-30T14:32:32.306Z,100681.09
2022-09-30T14:34:59.749Z,100708.28
2022-09-30T14:37:31.410Z,100706.66
2022-09-30T14:39:58.731Z,100701.69
2022-09-30T14:42:31.200Z,100704.03
2022-09-30T14:45:04.325Z,100699.06
2022-09-30T14:47:33.876Z,100692.66
2022-09-30T14:50:02.020Z,100697.66
2022-09-30T14:52:43.905Z,100703.31
2022-09-30T14:55:39.944Z,100708.91
2022-09-30T14:58:31.140Z,100685.09
2022-09-30T15:01:01.460Z,100673.22
2022-09-30T15:03:29.108Z,100689.81
2022-09-30T15:05:56.956Z,100689.22
2022-09-30T15:08:23.737Z,100689.88
2022-09-30T15:10:52.364Z,100687.84
2022-09-30T15:13:21.010Z,100688.97
2022-09-30T15:15:47.582Z,100694.41
2022-09-30T15:18:35.631Z,100685.66
2022-09-30T15:21:08.872Z,100682.81
2022-09-30T15:23:36.917Z,100681.78
2022-09-30T15:26:03.948Z,100678.63
2022-09-30T15:28:30.865Z,100673.28
2022-09-30T15:30:58.496Z,100659.44
2022-09-30T15:33:31.743Z,100654.22
2022-09-30T15:36:03.468Z,100658.53
2022-09-30T15:38:31.628Z,100653.25
2022-09-30T15:41:09.224Z,100660.28
2022-09-30T15:43:39.622Z,100655.22
2022-09-30T15:46:26.936Z,100653.19
2022-09-30T15:48:59.445Z,100658.75
2022-09-30T15:51:42.371Z,100656.34
2022-09-30T15:54:14.863Z,100666.66
2022-09-30T15:56:42.314Z,100668.06
2022-09-30T15:59:11.154Z,100669.09
2022-09-30T16:01:51.060Z,100667.53
2022-09-30T16:04:17.430Z,100668.59
2022-09-30T16:06:51.687Z,100666.59
2022-09-30T16:09:18.411Z,100661.28
2022-09-30T16:12:06.639Z,100653.75
2022-09-30T16:14:40.397Z,100652.09
2022-09-30T16:17:13.324Z,100660.72
2022-09-30T16:19:40.914Z,100656.06
2022-09-30T16:22:49.294Z,100667.41
2022-09-30T16:25:32.632Z,100667.06
2022-09-30T16:28:12.651Z,100668.31
2022-09-30T16:30:54.167Z,100659.69
2022-09-30T16:33:20.746Z,100653.13
2022-09-30T16:35:47.538Z,100648.22
2022-09-30T16:38:15.962Z,100651.50
2022-09-30T16:40:42.538Z,100645.97
2022-09-30T16:43:11.548Z,100648.88
2022-09-30T16:45:39.797Z,100646.63
2022-09-30T16:48:14.303Z,100649.75
2022-09-30T16:50:51.463Z,100654.25
2022-09-30T16:53:18.059Z,100647.06
2022-09-30T16:55:44.851Z,100641.78
2022-09-30T16:58:12.339Z,100638.09
2022-09-30T17:00:44.315Z,100643.03
2022-09-30T17:03:16.542Z,100641.78
2022-09-30T17:05:45.596Z,100644.69
2022-09-30T17:08:14.013Z,100645.06
2022-09-30T17:10:42.791Z,100649.19
2022-09-30T17:13:09.379Z,100648.38
2022-09-30T17:15:38.638Z,100643.06
2022-09-30T17:18:07.289Z,100643.88
2022-09-30T17:20:34.525Z,100644.28
2022-09-30T17:23:06.252Z,100646.13
2022-09-30T17:25:34.192Z,100640.16
2022-09-30T17:28:01.032Z,100647.16
2022-09-30T17:30:27.682Z,100637.69
2022-09-30T17:32:54.522Z,100633.16
2022-09-30T17:35:22.511Z,100642.81
2022-09-30T17:37:49.443Z,100639.72
2022-09-30T17:40:35.160Z,100641.38
2022-09-30T17:43:07.409Z,100638.09
2022-09-30T17:45:40.347Z,100631.53
2022-09-30T17:48:08.831Z,100629.06
2022-09-30T17:50:44.394Z,100624.97
2022-09-30T17:53:16.761Z,100621.28
2022-09-30T17:55:46.973Z,100619.84
2022-09-30T17:58:14.629Z,100614.91
2022-09-30T18:00:41.561Z,100616.78
2022-09-30T18:03:09.232Z,100608.56
2022-09-30T18:05:36.122Z,100602.41
2022-09-30T18:08:03.335Z,100604.88
2022-09-30T18:10:29.860Z,100599.13
2022-09-30T18:12:56.379Z,100594.19
2022-09-30T18:15:23.396Z,100603.22
2022-09-30T18:17:50.071Z,100604.66
2022-09-30T18:20:17.858Z,100598.09
2022-09-30T18:22:46.346Z,100602.38
2022-09-30T18:25:22.672Z,100596.25
2022-09-30T18:27:51.883Z,100597.47
2022-09-30T18:30:20.079Z,100605.28
2022-09-30T18:32:48.510Z,100599.13
2022-09-30T18:35:17.081Z,100597.91
2022-09-30T18:37:47.071Z,100592.34
2022-09-30T18:40:16.507Z,100590.13
2022-09-30T18:42:44.071Z,100584.16
2022-09-30T18:45:12.514Z,100582.31
2022-09-30T18:47:41.052Z,100574.53
2022-09-30T18:50:08.980Z,100574.94
2022-09-30T18:52:35.834Z,100569.81
2022-09-30T18:55:02.351Z,100559.16
2022-09-30T18:57:29.229Z,100558.75
2022-09-30T18:59:55.693Z,100564.28
2022-09-30T19:02:22.160Z,100558.56
2022-09-30T19:04:48.620Z,100556.91
2022-09-30T19:07:19.528Z,100557.94
2022-09-30T19:09:46.612Z,100556.09
2022-09-30T19:12:17.396Z,100549.09
2022-09-30T19:14:44.610Z,100551.16
2022-09-30T19:17:11.571Z,100544.22
2022-09-30T19:19:40.936Z,100541.94
2022-09-30T19:22:08.040Z,100536.41
2022-09-30T19:24:35.828Z,100543.19
2022-09-30T19:27:02.483Z,100535.78
2022-09-30T19:29:29.253Z,100531.91
2022-09-30T19:31:57.333Z,100531.09
2022-09-30T19:34:31.567Z,100525.13
2022-09-30T19:36:59.813Z,100527.41
2022-09-30T19:39:34.756Z,100524.72
2022-09-30T19:42:05.992Z,100514.47
2022-09-30T19:44:32.543Z,100513.47
2022-09-30T19:46:59.376Z,100513.03
2022-09-30T19:49:26.164Z,100508.72
2022-09-30T19:51:52.935Z,100511.38
2022-09-30T19:54:35.919Z,100507.72
2022-09-30T19:57:06.534Z,100494.19
2022-09-30T19:59:33.884Z,100488.66
2022-09-30T20:02:00.886Z,100488.88
2022-09-30T20:04:27.424Z,100480.25
2022-09-30T20:06:54.074Z,100470.63
2022-09-30T20:09:21.715Z,100464.28
2022-09-30T20:11:49.275Z,100462.63
2022-09-30T20:14:34.385Z,100462.00
2022-09-30T20:17:00.950Z,100456.66
2022-09-30T20:19:27.507Z,100453.41
2022-09-30T20:21:54.459Z,100454.84
2022-09-30T20:24:21.160Z,100464.47
2022-09-30T20:26:48.190Z,100456.09
2022-09-30T20:29:14.795Z,100455.66
2022-09-30T20:31:42.612Z,100460.19
2022-09-30T20:34:12.060Z,100454.44
2022-09-30T20:36:40.482Z,100453.19
2022-09-30T20:39:07.770Z,100464.28
2022-09-30T20:41:36.652Z,100454.84
2022-09-30T20:44:04.880Z,100457.31
2022-09-30T20:46:31.959Z,100455.03
2022-09-30T20:49:01.785Z,100456.47
2022-09-30T20:51:29.467Z,100457.31
2022-09-30T20:53:57.297Z,100450.34
2022-09-30T20:56:24.851Z,100448.72
2022-09-30T20:58:53.072Z,100448.09
2022-09-30T21:01:21.072Z,100447.28
2022-09-30T21:03:50.391Z,100451.56
2022-09-30T21:06:20.494Z,100443.78
2022-09-30T21:08:47.510Z,100434.53
2022-09-30T21:11:14.007Z,100430.50
2022-09-30T21:13:44.663Z,100436.22
2022-09-30T21:16:14.890Z,100433.97
2022-09-30T21:18:42.658Z,100426.78
2022-09-30T21:21:12.484Z,100427.22
2022-09-30T21:23:39.335Z,100423.31
2022-09-30T21:26:11.161Z,100423.94
2022-09-30T21:28:37.670Z,100427.41
2022-09-30T21:31:06.383Z,100417.38
2022-09-30T21:33:32.898Z,100408.94
2022-09-30T21:36:04.035Z,100411.22
2022-09-30T21:38:30.757Z,100404.66
2022-09-30T21:41:02.127Z,100405.28
2022-09-30T21:43:30.273Z,100394.19
2022-09-30T21:46:08.543Z,100389.91
2022-09-30T21:48:36.338Z,100395.44
2022-09-30T21:51:04.499Z,100387.69
2022-09-30T21:53:31.971Z,100390.53
2022-09-30T21:56:00.954Z,100394.63
2022-09-30T21:58:28.788Z,100394.25
2022-09-30T22:01:00.743Z,100400.81
2022-09-30T22:03:35.949Z,100388.31
2022-09-30T22:06:02.651Z,100387.06
2022-09-30T22:08:32.934Z,100388.91
2022-09-30T22:10:59.403Z,100375.81
2022-09-30T22:13:25.994Z,100381.56
2022-09-30T22:15:52.459Z,100373.97
2022-09-30T22:18:19.776Z,100378.47
2022-09-30T22:20:47.679Z,100380.31
2022-09-30T22:23:17.391Z,100380.31
2022-09-30T22:25:43.852Z,100371.31
2022-09-30T22:28:10.531Z,100363.72
2022-09-30T22:30:37.390Z,100368.03
2022-09-30T22:33:42.225Z,100370.09
2022-09-30T22:36:27.531Z,100369.28
2022-09-30T22:38:53.992Z,100363.56
2022-09-30T22:41:20.712Z,100364.97
2022-09-30T22:43:47.556Z,100360.69
2022-09-30T22:46:14.111Z,100357.63
2022-09-30T22:48:40.631Z,100350.44
2022-09-30T22:51:14.455Z,100346.16
2022-09-30T22:53:40.926Z,100344.31
2022-09-30T22:56:08.423Z,100336.94
2022-09-30T22:58:36.939Z,100336.94
2022-09-30T23:01:03.643Z,100333.47
2022-09-30T23:03:31.077Z,100329.16
2022-09-30T23:06:01.640Z,100330.81
2022-09-30T23:08:33.238Z,100307.66
2022-09-30T23:11:00.283Z,100315.66
2022-09-30T23:13:30.508Z,100308.91
2022-09-30T23:15:58.176Z,100305.63
2022-09-30T23:18:24.861Z,100307.47
2022-09-30T23:20:59.267Z,100310.53
2022-09-30T23:23:25.814Z,100300.50
2022-09-30T23:26:06.450Z,100293.16
2022-09-30T23:28:33.052Z,100292.13
2022-09-30T23:31:00.979Z,100283.09
2022-09-30T23:33:27.734Z,100278.81
2022-09-30T23:35:56.034Z,100276.78
2022-09-30T23:38:26.455Z,100275.13
2022-09-30T23:40:58.745Z,100270.41
2022-09-30T23:43:31.054Z,100259.56
2022-09-30T23:45:58.160Z,100266.31
2022-09-30T23:48:24.795Z,100250.97
2022-09-30T23:50:51.623Z,100250.16
2022-09-30T23:53:18.626Z,100257.53
2022-09-30T23:56:02.855Z,100244.03
2022-09-30T23:58:29.550Z,100240.75
